Terminal Aerodrome Forecast
Issued by NWS

Home | Current Version | Previous Version | Text Only | Print | Product List | Glossary On
Versions: 1 2 3 4 5 6 7 8 9 10 11 12 13 14 15 16 17 18 19 20
000
FTUS44 KLIX 221400 AAA
TAFMCB
TAF AMD
KMCB 221458Z 2215/2312 17007KT 3SM BR BKN020
      TEMPO 2215/2216 1/4SM FG VV003
     FM221800 19007KT P6SM BKN040
     FM230100 20009KT P6SM BKN020
     FM230400 22006KT P6SM BKN008
     FM231000 18004KT P6SM BKN003=

USA.gov is the U.S. government's official web portal to all federal, state and local government web resources and services.